Station: Isisford  

  Atmospheric Gas Attenuation - ITU Rec 676-11   ----------------- dB/100km -----------------
Date Time Temp RH % AH g/m3 Dew Point Wind Direction Speed kph Gust kph Barometer mB Rainfall Since 9am 24GHz 47GHz 76GHz 122GHz 134GHz 241GHz
08/05 09:00 13.9 37 4.44 -0.4 24 1013.1 0 10.8 19.6 24.4 63.2 47.6 160.2
06/05 09:00 19.6 75 12.66 15 13 1013.1 0.6 27.9 30.8 53.2 140.2 144.5 500.4
05/05 09:00 18.5 80 12.66 15.1 13 1013.1 3 28.0 31.2 53.9 142.2 146.6 507.5
04/05 09:00 24.4 68 15.13 18.1 17 1013.1 0 32.8 33.3 60.3 159.1 169.2 587.3
01/05 09:00 22.9 56 11.44 13.7 17 1013.1 0 25.1 27.7 46.1 121.5 122.5 423.8
30/04 09:00 22.4 47 9.33 10.7 17 1013.1 0 20.7 24.6 38.4 100.8 96.9 334.3
29/04 09:00 22.9 40 8.17 8.8 9 1013.1 0 18.3 22.8 34.0 89.2 82.7 284.5
28/04 09:00 21.5 51 9.62 10.9 20 1013.1 0 21.4 25.3 39.9 104.9 101.6 350.5
27/04 09:00 22.1 42 8.2 8.6 13 1013.1 0 18.4 23.0 34.5 90.3 83.9 288.6
26/04 09:00 20.7 50 9 10.1 13 1013.1 0 20.1 24.6 38.0 99.7 95.0 327.3
25/04 09:00 22.4 38 7.55 7.6 17 1013.1 0 17.0 22.0 32.1 84.0 76.1 261.4
24/04 09:00 21.7 49 9.35 10.5 13 1013.1 0 20.8 24.8 38.8 101.9 98.0 338.1
23/04 09:00 22.6 54 10.85 12.9 13 1013.1 0 23.9 26.9 44.0 115.8 115.4 399.1
22/04 09:00 20.2 60 10.49 12.2 13 1013.1 0 23.3 27.0 43.9 115.6 114.3 395.0
21/04 09:00 1013.1
20/04 09:00 22.7 39 7.88 8 13 1013.1 0 17.7 22.4 33.1 86.7 79.6 273.6
19/04 09:00 25 34 7.83 8.4 13 1013.1 0 17.5 21.8 32.0 83.8 76.8 264.1
18/04 09:00 25.2 98 22.81 24.9 9 1013.1 0 49.1 47.5 95.9 253.8 285.7 992.4
17/04 09:00 22.7 92 18.59 21.3 7 1013.1 9 40.3 40.4 77.6 205.2 225.3 782.2
16/04 09:00 24.4 74 16.47 19.5 17 1013.1 0 35.6 35.6 66.1 174.7 188.4 654.1
15/04 09:00 21.8 43 8.25 8.7 13 1013.1 0 18.5 23.2 34.8 91.1 84.8 291.7
14/04 09:00 20.8 33 5.97 3.9 17 1013.1 0 13.7 20.3 27.3 71.3 59.9 204.3
13/04 09:00 19.5 32 5.37 2.7 24 1013.1 12.5 19.7 25.8 67.1 54.3 184.5
12/04 09:00 22 40 7.76 8 20 1013.1 0 17.4 22.4 33.0 86.3 78.9 271.1
11/04 09:00 28.2 43 11.82 14.6 9 1013.1 0 25.6 26.7 44.6 117.4 119.1 412.6
09/04 09:00 29.3 39 11.39 14.1 13 1013.1 0 24.6 25.7 42.4 111.7 112.3 389.2
08/04 09:00 28.5 39 10.9 13.5 9 1013.1 0 23.7 25.2 41.1 108.1 107.7 372.8
07/04 09:00 25.8 46 11.07 13.3 13 1013.1 0 24.2 26.3 43.1 113.4 113.5 392.8
06/04 09:00 25.8 53 12.76 15.7 13 1013.1 0 27.7 28.9 49.5 130.6 134.6 466.7
05/04 09:00 26.1 49 12 14.7 9 1013.1 0 26.1 27.6 46.4 122.3 124.5 431.4
04/04 09:00 27.4 38 10 11.9 13 1013.1 0 21.9 24.2 38.4 101.0 98.7 341.1
03/04 09:00 27.6 42 11.17 13.7 9 1013.1 0 24.3 25.9 42.5 111.9 112.1 388.2
02/04 09:00 28.1 47 12.85 16 9 1013.1 0 27.7 28.3 48.5 127.8 131.9 457.3
01/04 09:00 26 56 13.63 16.7 13 1013.1 0 29.5 30.2 52.9 139.5 145.6 505.0
31/03 09:00 25.3 56 13.11 15.9 17 1013.1 0 28.5 29.6 51.2 135.2 140.1 485.6
30/03 09:00 24.5 53 11.86 14.5 17 1013.1 0 25.9 27.9 46.8 123.4 125.3 433.9
29/03 09:00 21.9 30 5.79 3.9 17 1013.1 0 13.3 19.8 26.4 68.8 57.2 194.8
28/03 09:00 19.4 32 5.34 2.5 24 1013.1 0 12.5 19.7 25.7 66.9 54.0 183.6
27/03 09:00 26 20 1013.1 0
26/03 09:00 28.9 47 13.43 16.5 9 1013.1 0 28.9 28.9 50.2 132.4 137.8 478.0
25/03 09:00 26.1 55 13.47 16.4 13 1013.1 0 29.2 29.9 52.2 137.6 143.3 497.0
24/03 09:00 27.6 48 12.77 15.8 13 1013.1 0 27.6 28.3 48.5 127.8 131.7 456.7
23/03 09:00 25.9 56 13.56 16.6 13 1013.1 0 29.4 30.1 52.7 138.9 144.9 502.4
22/03 09:00 26.9 58 14.85 18.1 13 1013.1 0 32.0 31.9 57.2 151.0 160.0 555.5
21/03 09:00 27.6 57 15.16 18.3 13 1013.1 0 32.6 32.1 58.0 153.1 162.7 565.0
20/03 09:00 27.4 63 16.58 19.9 13 1013.1 0 35.6 34.6 64.1 169.3 182.7 634.5
19/03 09:00 27.4 56 14.74 18 13 1013.1 0 31.7 31.5 56.4 148.9 157.5 546.8
18/03 09:00 25.7 63 15.08 18.2 13 1013.1 0 32.6 32.7 59.0 155.9 165.7 575.1
17/03 09:00 25.4 65 15.3 18.5 17 1013.1 0 33.1 33.2 60.2 159.0 169.4 588.0
16/03 09:00 25.5 60 14.2 17.2 13 1013.1 0 30.8 31.3 55.5 146.6 154.1 534.8
15/03 09:00 25.6 63 15 18.1 13 1013.1 0 32.4 32.6 58.8 155.2 164.8 572.0
14/03 09:00 1013.1
13/03 09:00 28.6 59 16.58 20 9 1013.1 0 35.5 34.1 63.1 166.7 179.8 624.7
12/03 09:00 28.7 64 18.09 21.3 9 1013.1 0 38.7 36.7 69.5 183.8 200.8 697.7
11/03 09:00 27.7 69 18.46 21.6 13 1013.1 0 39.5 37.8 72.0 190.6 208.8 725.6
09/03 09:00 25.3 84 19.66 22.5 13 1013.1 28 42.3 41.2 80.0 211.7 234.1 813.1
08/03 09:00 25.2 95 22.12 24.3 9 1013.1 21 47.6 46.1 92.3 244.4 274.1 952.2
07/03 09:00 29.6 20 1013.1 0
06/03 09:00 30.1 45 13.72 17 13 1013.1 0 29.4 29.0 50.6 133.4 139.3 483.4
05/03 09:00 28.1 55 15.04 18.3 17 1013.1 0 32.3 31.7 57.1 150.8 160.1 555.8
04/03 09:00 27.7 57 15.25 18.6 17 1013.1 0 32.8 32.2 58.2 153.8 163.7 568.5
03/03 09:00 27.8 61 16.41 19.7 24 1013.1 0 35.2 34.1 63.0 166.5 179.3 623.0
02/03 09:00 28.4 53 14.73 17.9 20 1013.1 0 31.7 31.1 55.6 146.9 155.4 539.5
01/03 09:00 28.3 61 16.87 20.1 17 1013.1 0.6 36.1 34.7 64.6 170.7 184.6 641.2
28/02 09:00 27.6 73 19.42 22.3 17 1013.1 0 41.6 39.6 76.5 202.4 223.4 776.2
27/02 09:00 29 49 14.08 17.2 13 1013.1 0 30.3 29.9 52.6 139.0 145.8 506.1
26/02 09:00 28.9 66 18.86 22.1 17 1013.1 0 40.3 38.0 72.7 192.3 211.3 734.5
25/02 09:00 28 73 19.85 22.7 20 1013.1 0 42.4 40.2 78.1 206.6 228.6 794.6
24/02 09:00 27.3 71 18.58 21.7 17 1013.1 17 39.8 38.2 73.0 193.0 211.7 735.6
23/02 09:00 1013.1
22/02 09:00 27.3 72 18.84 21.8 17 1013.1 0 40.4 38.7 74.1 196.1 215.6 749.0
21/02 09:00 26.6 73 18.38 21.4 13 1013.1 3 39.5 38.1 72.7 192.4 210.7 732.0
20/02 09:00 26.2 91 22.4 24.6 9 1013.1 4 48.1 46.1 92.5 244.9 275.0 955.5
19/02 09:00 28 70 19.04 22.1 17 1013.1 0 40.7 38.7 74.4 196.8 216.5 752.5
18/02 09:00 28.6 64 17.99 21.1 13 1013.1 0 38.5 36.6 69.1 182.8 199.6 693.6
17/02 09:00 27.6 70 18.62 21.7 13 1013.1 7 39.9 38.1 72.9 192.7 211.5 734.8
16/02 09:00 24.4 78 17.36 20.4 9 1013.1 17 37.5 37.2 70.1 185.4 201.5 699.8
15/02 09:00 23.8 85 18.28 21.2 9 1013.1 8 39.6 39.2 75.0 198.3 217.2 754.2
14/02 09:00 28.3 76 21.01 23.7 9 1013.1 2 44.9 42.2 83.2 220.2 245.4 853.0
13/02 09:00 27.2 91 23.68 25.6 9 1013.1 44 50.7 48.1 97.7 258.8 292.4 1016.0
12/02 09:00 32.1 60 20.37 23.5 13 1013.1 12 43.1 39.2 76.3 202.0 224.0 779.1
11/02 09:00 33.7 52 19.21 22.6 13 1013.1 0 40.5 36.5 69.8 184.7 203.2 707.0
10/02 09:00 1013.1
09/02 09:00 32.2 56 19.11 22.5 13 1013.1 0 40.4 37.0 70.7 187.1 205.9 715.9
08/02 09:00 30.5 56 17.45 20.8 13 1013.1 0 37.2 34.8 65.2 172.3 187.2 650.8
07/02 09:00 30.5 51 15.89 19.4 13 1013.1 0 33.9 32.2 58.8 155.3 166.3 577.7
06/02 09:00 31.2 47 15.21 18.6 17 1013.1 0 32.4 30.9 55.6 146.8 156.0 542.0
05/02 09:00 30.4 20 1013.1 0
04/02 09:00 27.2 65 16.92 20.2 17 1013.1 0 36.3 35.3 65.7 173.7 187.9 652.8
03/02 09:00 23.9 91 19.69 22.4 9 1013.1 8 42.6 41.9 81.7 216.1 239.0 830.1
02/02 09:00 32.7 48 16.82 20.3 9 1013.1 0.1 35.6 32.9 60.8 160.8 173.7 603.8
01/02 09:00 1013.1
31/01 09:00 32.1 38 12.9 16.3 9 1013.1 0 27.6 27.1 46.3 122.1 126.0 437.1
29/01 09:00 33 44 15.67 19.4 17 1013.1 0 33.2 31.0 56.1 148.2 158.2 550.0
28/01 09:00 30.9 45 14.33 17.9 13 1013.1 0 30.6 29.6 52.4 138.2 145.4 505.1
27/01 09:00 31.6 56 18.51 21.9 13 1013.1 0 39.3 36.2 68.7 181.8 199.1 692.3
26/01 09:00 32 49 16.55 20 13 1013.1 0 35.1 32.8 60.3 159.3 171.7 596.8
25/01 09:00 30.2 49 15.02 18.3 13 1013.1 0 32.1 31.0 55.5 146.6 155.6 540.3
24/01 09:00 30.7 58 18.27 21.7 13 1013.1 13 38.8 36.2 68.5 181.1 198.1 688.6
23/01 09:00 31 50 16.01 19.5 13 1013.1 0 34.1 32.3 58.9 155.6 166.8 579.6

Last Refresh: 08-May-2026 12:07:35

Bureau of Meteorology